createdAt,value
2022-10-31T00:03:19.389Z,101977.56
2022-10-31T00:08:20.876Z,101988.06
2022-10-31T00:18:29.422Z,101971.84
2022-10-31T00:23:30.993Z,101980.75
2022-10-31T00:28:33.098Z,101974.59
2022-10-31T00:33:37.602Z,101980.59
2022-10-31T00:38:39.325Z,101986.88
2022-10-31T00:43:40.879Z,101978.13
2022-10-31T00:48:43.107Z,101975.22
2022-10-31T00:53:44.938Z,101998.78
2022-10-31T00:58:47.583Z,101981.28
2022-10-31T01:03:49.146Z,101984.00
2022-10-31T01:08:50.815Z,101999.34
2022-10-31T01:13:54.161Z,101982.13
2022-10-31T01:18:56.129Z,101985.88
2022-10-31T01:23:58.031Z,101978.81
2022-10-31T01:29:02.410Z,101984.72
2022-10-31T01:34:04.273Z,102014.06
2022-10-31T01:39:10.435Z,102005.50
2022-10-31T01:44:14.729Z,102011.53
2022-10-31T01:49:24.784Z,101981.47
2022-10-31T01:54:31.015Z,101985.22
2022-10-31T01:59:35.133Z,101974.59
2022-10-31T02:04:37.492Z,101965.56
2022-10-31T02:09:40.821Z,101989.72
2022-10-31T02:14:43.193Z,101970.53
2022-10-31T02:20:13.947Z,102000.59
2022-10-31T02:25:30.308Z,102000.75
2022-10-31T02:30:54.872Z,101986.53
2022-10-31T02:36:11.700Z,101987.06
2022-10-31T02:41:25.928Z,101971.72
2022-10-31T02:46:44.201Z,101983.06
2022-10-31T02:51:46.436Z,101978.50
2022-10-31T02:56:50.170Z,101970.22
2022-10-31T03:02:04.045Z,101990.19
2022-10-31T03:07:26.644Z,101983.28
2022-10-31T03:12:36.433Z,101965.63
2022-10-31T03:17:57.274Z,101970.09
2022-10-31T03:23:02.028Z,101971.25
2022-10-31T03:28:06.841Z,101978.59
2022-10-31T03:33:14.421Z,101983.50
2022-10-31T03:38:16.066Z,101992.00
2022-10-31T03:48:29.867Z,101998.91
2022-10-31T03:54:13.183Z,101998.03
2022-10-31T03:59:25.378Z,101967.56
2022-10-31T04:04:28.472Z,101973.59
2022-10-31T04:09:34.396Z,101969.28
2022-10-31T04:14:40.890Z,101970.59
2022-10-31T04:19:42.600Z,101986.53
2022-10-31T04:24:44.259Z,101987.56
2022-10-31T04:29:48.323Z,101980.06
2022-10-31T04:34:52.350Z,101977.22
2022-10-31T04:39:53.893Z,101996.34
2022-10-31T04:44:55.400Z,101985.97
2022-10-31T04:49:56.926Z,102011.13
2022-10-31T04:54:58.441Z,101994.16
2022-10-31T04:59:59.976Z,101985.94
2022-10-31T05:05:01.589Z,101979.47
2022-10-31T05:10:03.128Z,101983.22
2022-10-31T05:15:06.250Z,101989.69
2022-10-31T05:20:08.174Z,102002.34
2022-10-31T05:25:09.873Z,101986.25
2022-10-31T05:30:13.693Z,101971.16
2022-10-31T05:35:19.431Z,101964.09
2022-10-31T05:40:22.120Z,101959.94
2022-10-31T05:45:24.092Z,101971.00
2022-10-31T05:50:27.178Z,101966.13
2022-10-31T05:55:29.755Z,101961.81
2022-10-31T06:00:31.297Z,101949.88
2022-10-31T06:05:33.530Z,101949.28
2022-10-31T06:10:35.634Z,101945.38
2022-10-31T06:15:37.162Z,101964.91
2022-10-31T06:20:38.731Z,101961.88
2022-10-31T06:25:40.260Z,101931.28
2022-10-31T06:30:41.833Z,101929.56
2022-10-31T06:35:49.574Z,101943.81
2022-10-31T06:40:51.163Z,101938.63
2022-10-31T06:45:52.724Z,101940.75
2022-10-31T06:50:59.407Z,101947.41
2022-10-31T06:56:01.261Z,101954.16
2022-10-31T07:01:03.022Z,101960.88
2022-10-31T07:06:05.644Z,101977.69
2022-10-31T07:11:07.272Z,101951.38
2022-10-31T07:16:09.341Z,101961.44
2022-10-31T07:21:10.916Z,101955.97
2022-10-31T07:26:12.534Z,101959.97
2022-10-31T07:31:14.102Z,101986.81
2022-10-31T07:36:16.560Z,101964.25
2022-10-31T07:41:18.132Z,101963.88
2022-10-31T07:46:19.667Z,101971.19
2022-10-31T07:51:23.879Z,102000.94
2022-10-31T07:56:25.446Z,101998.31
2022-10-31T08:01:27.141Z,101987.91
2022-10-31T08:06:28.684Z,102004.38
2022-10-31T08:11:30.214Z,101972.44
2022-10-31T08:16:31.748Z,101993.19
2022-10-31T08:21:33.719Z,101981.47
2022-10-31T08:26:35.252Z,101996.97
2022-10-31T08:37:04.182Z,101985.06
2022-10-31T08:42:05.727Z,101983.44
2022-10-31T08:47:07.326Z,101996.13
2022-10-31T08:52:14.197Z,101967.25
2022-10-31T08:57:16.050Z,101974.34
2022-10-31T09:02:17.672Z,101999.03
2022-10-31T09:07:21.184Z,101988.06
2022-10-31T09:12:24.897Z,101984.72
2022-10-31T09:17:27.725Z,101980.84
2022-10-31T09:22:29.274Z,101952.72
2022-10-31T09:27:30.829Z,101941.41
2022-10-31T09:32:32.482Z,101950.00
2022-10-31T09:37:34.017Z,101945.41
2022-10-31T09:42:48.886Z,101969.53
2022-10-31T09:48:11.265Z,101968.50
2022-10-31T09:53:34.062Z,101956.00
2022-10-31T09:58:44.623Z,101950.44
2022-10-31T10:03:49.379Z,101942.91
2022-10-31T10:08:50.984Z,101925.22
2022-10-31T10:14:01.270Z,101951.53
2022-10-31T10:19:18.241Z,101945.00
2022-10-31T10:25:11.281Z,101955.50
2022-10-31T10:30:19.764Z,101936.03
2022-10-31T10:35:37.310Z,101921.56
2022-10-31T10:40:39.091Z,101920.19
2022-10-31T10:46:00.065Z,101920.88
2022-10-31T10:51:04.656Z,101896.25
2022-10-31T10:56:33.707Z,101884.75
2022-10-31T11:01:35.269Z,101885.63
2022-10-31T11:06:36.774Z,101866.59
2022-10-31T11:11:39.768Z,101845.31
2022-10-31T11:16:45.643Z,101859.22
2022-10-31T11:21:53.684Z,101841.38
2022-10-31T11:27:14.715Z,101835.22
2022-10-31T11:32:25.047Z,101801.91
2022-10-31T11:37:30.005Z,101804.63
2022-10-31T11:42:39.894Z,101810.81
2022-10-31T11:47:45.862Z,101802.25
2022-10-31T11:52:47.976Z,101784.72
2022-10-31T11:57:52.437Z,101779.88
2022-10-31T12:03:05.990Z,101781.25
2022-10-31T12:08:12.326Z,101745.53
2022-10-31T12:13:31.506Z,101770.91
2022-10-31T12:18:49.227Z,101786.41
2022-10-31T12:24:06.428Z,101779.03
2022-10-31T12:29:32.271Z,101732.31
2022-10-31T12:34:52.941Z,101736.56
2022-10-31T12:39:57.312Z,101730.91
2022-10-31T12:45:15.432Z,101700.88
2022-10-31T12:50:36.184Z,101722.69
2022-10-31T12:56:01.820Z,101715.63
2022-10-31T13:01:16.213Z,101702.75
2022-10-31T13:06:22.707Z,101689.53
2022-10-31T13:11:33.273Z,101665.50
2022-10-31T13:16:41.549Z,101643.66
2022-10-31T13:21:45.816Z,101661.31
2022-10-31T13:26:55.038Z,101629.22
2022-10-31T13:31:56.702Z,101641.91
2022-10-31T13:37:11.124Z,101632.97
2022-10-31T13:42:42.965Z,101629.00
2022-10-31T13:47:55.315Z,101602.72
2022-10-31T13:53:18.642Z,101602.97
2022-10-31T13:58:32.785Z,101602.13
2022-10-31T14:04:03.612Z,101594.56
2022-10-31T14:08:59.395Z,101573.22
2022-10-31T14:14:02.731Z,101553.69
2022-10-31T14:19:21.518Z,101554.53
2022-10-31T14:24:26.002Z,101549.84
2022-10-31T14:29:32.416Z,101501.16
2022-10-31T14:34:38.414Z,101511.94
2022-10-31T14:40:01.304Z,101496.72
2022-10-31T14:45:28.627Z,101498.81
2022-10-31T14:50:48.784Z,101481.31
2022-10-31T14:55:53.361Z,101484.00
2022-10-31T15:00:57.437Z,101497.03
2022-10-31T15:06:05.159Z,101484.00
2022-10-31T15:11:15.724Z,101474.91
2022-10-31T15:21:45.828Z,101444.03
2022-10-31T15:26:49.908Z,101424.78
2022-10-31T15:31:59.644Z,101428.94
2022-10-31T15:37:01.226Z,101417.94
2022-10-31T15:42:02.986Z,101402.19
2022-10-31T15:47:06.338Z,101391.38
2022-10-31T15:52:10.696Z,101392.22
2022-10-31T15:57:13.088Z,101391.38
2022-10-31T16:02:16.105Z,101382.66
2022-10-31T16:07:23.213Z,101373.38
2022-10-31T16:12:30.338Z,101377.16
2022-10-31T16:17:32.783Z,101373.91
2022-10-31T16:22:39.686Z,101368.44
2022-10-31T16:27:53.859Z,101366.72
2022-10-31T16:32:57.442Z,101347.28
2022-10-31T16:37:59.135Z,101354.69
2022-10-31T16:43:01.981Z,101336.50
2022-10-31T16:48:15.518Z,101342.16
2022-10-31T16:53:18.372Z,101315.72
2022-10-31T16:58:26.246Z,101303.09
2022-10-31T17:03:28.120Z,101324.22
2022-10-31T17:08:30.841Z,101299.50
2022-10-31T17:13:34.678Z,101295.91
2022-10-31T17:18:36.141Z,101300.72
2022-10-31T17:23:38.561Z,101289.41
2022-10-31T17:28:40.156Z,101280.31
2022-10-31T17:33:44.067Z,101278.63
2022-10-31T17:38:45.552Z,101264.41
2022-10-31T17:43:47.051Z,101268.03
2022-10-31T17:48:48.538Z,101248.78
2022-10-31T17:53:50.044Z,101227.00
2022-10-31T17:58:51.605Z,101232.31
2022-10-31T18:03:53.097Z,101223.03
2022-10-31T18:08:57.871Z,101216.69
2022-10-31T18:14:00.161Z,101203.50
2022-10-31T18:19:02.044Z,101191.38
2022-10-31T18:24:03.680Z,101176.59
2022-10-31T18:29:05.448Z,101161.63
2022-10-31T18:34:06.984Z,101152.94
2022-10-31T18:39:08.505Z,101144.00
2022-10-31T18:44:10.140Z,101136.34
2022-10-31T18:49:11.625Z,101141.16
2022-10-31T18:54:13.161Z,101139.84
2022-10-31T18:59:14.701Z,101130.91
2022-10-31T19:04:16.713Z,101108.91
2022-10-31T19:09:18.186Z,101114.25
2022-10-31T19:14:19.737Z,101113.38
2022-10-31T19:19:21.224Z,101096.63
2022-10-31T19:24:22.799Z,101092.34
2022-10-31T19:29:24.315Z,101085.34
2022-10-31T19:34:25.817Z,101073.34
2022-10-31T19:39:27.315Z,101064.81
2022-10-31T19:44:30.884Z,101064.97
2022-10-31T19:49:32.521Z,101064.13
2022-10-31T19:54:34.287Z,101057.78
2022-10-31T19:59:39.363Z,101050.59
2022-10-31T20:04:41.113Z,101044.56
2022-10-31T20:09:45.551Z,101039.72
2022-10-31T20:14:48.671Z,101030.13
2022-10-31T20:19:50.226Z,101022.78
2022-10-31T20:24:51.909Z,101023.25
2022-10-31T20:29:53.406Z,101008.69
2022-10-31T20:34:54.901Z,101013.31
2022-10-31T20:39:56.723Z,101010.00
2022-10-31T20:44:58.321Z,100993.91
2022-10-31T20:49:59.827Z,100981.25
2022-10-31T20:55:01.377Z,100978.50
2022-10-31T21:00:04.192Z,100971.59
2022-10-31T21:05:08.313Z,100957.59
2022-10-31T21:10:16.072Z,100952.59
2022-10-31T21:15:17.620Z,100949.66
2022-10-31T21:20:19.164Z,100952.47
2022-10-31T21:25:21.270Z,100941.59
2022-10-31T21:30:22.727Z,100947.38
2022-10-31T21:35:24.171Z,100944.06
2022-10-31T21:40:26.645Z,100932.69
2022-10-31T21:45:28.116Z,100931.66
2022-10-31T21:50:30.403Z,100920.69
2022-10-31T21:55:31.859Z,100905.72
2022-10-31T22:00:33.322Z,100906.38
2022-10-31T22:05:34.992Z,100897.94
2022-10-31T22:10:36.452Z,100881.28
2022-10-31T22:15:37.945Z,100873.72
2022-10-31T22:20:39.396Z,100862.91
2022-10-31T22:25:40.867Z,100849.16
2022-10-31T22:30:42.336Z,100845.41
2022-10-31T22:35:43.870Z,100845.19
2022-10-31T22:40:45.652Z,100842.44
2022-10-31T22:45:54.576Z,100827.31
2022-10-31T22:50:56.084Z,100820.56
2022-10-31T22:55:57.535Z,100821.22
2022-10-31T23:00:59.493Z,100810.50
2022-10-31T23:06:02.468Z,100812.00
2022-10-31T23:11:33.514Z,100805.66
2022-10-31T23:16:56.883Z,100795.72
2022-10-31T23:22:03.970Z,100786.03
2022-10-31T23:27:11.458Z,100788.84
2022-10-31T23:32:22.322Z,100774.91
2022-10-31T23:37:26.704Z,100771.31
2022-10-31T23:42:28.515Z,100766.66
2022-10-31T23:47:29.999Z,100758.63
2022-10-31T23:52:31.472Z,100751.91
2022-10-31T23:57:32.969Z,100754.81
